sensor_id;sensor_type;location;lat;lon;timestamp;temperature;humidity
78793;SHT31;68134;51.984;5.652;2023-11-19T00:00:28;14.9;82.6
78793;SHT31;68134;51.984;5.652;2023-11-19T00:02:56;14.9;82.5
78793;SHT31;68134;51.984;5.652;2023-11-19T00:05:25;14.9;82.4
78793;SHT31;68134;51.984;5.652;2023-11-19T00:07:55;14.9;82.3
78793;SHT31;68134;51.984;5.652;2023-11-19T00:10:23;14.9;82.2
78793;SHT31;68134;51.984;5.652;2023-11-19T00:12:52;14.9;82.2
78793;SHT31;68134;51.984;5.652;2023-11-19T00:15:23;14.9;82.1
78793;SHT31;68134;51.984;5.652;2023-11-19T00:17:52;14.9;82.1
78793;SHT31;68134;51.984;5.652;2023-11-19T00:20:21;15.0;82.1
78793;SHT31;68134;51.984;5.652;2023-11-19T00:22:50;15.0;82.0
78793;SHT31;68134;51.984;5.652;2023-11-19T00:25:20;15.0;81.9
78793;SHT31;68134;51.984;5.652;2023-11-19T00:27:49;15.0;81.7
78793;SHT31;68134;51.984;5.652;2023-11-19T00:30:20;15.0;81.7
78793;SHT31;68134;51.984;5.652;2023-11-19T00:32:48;15.0;81.6
78793;SHT31;68134;51.984;5.652;2023-11-19T00:35:17;15.0;81.4
78793;SHT31;68134;51.984;5.652;2023-11-19T00:37:45;15.0;81.4
78793;SHT31;68134;51.984;5.652;2023-11-19T00:40:14;15.0;81.4
78793;SHT31;68134;51.984;5.652;2023-11-19T00:42:44;15.0;81.3
78793;SHT31;68134;51.984;5.652;2023-11-19T00:45:14;15.0;81.0
78793;SHT31;68134;51.984;5.652;2023-11-19T00:47:42;15.0;81.0
78793;SHT31;68134;51.984;5.652;2023-11-19T00:50:11;15.1;81.0
78793;SHT31;68134;51.984;5.652;2023-11-19T00:52:40;15.1;80.9
78793;SHT31;68134;51.984;5.652;2023-11-19T00:55:09;15.1;80.8
78793;SHT31;68134;51.984;5.652;2023-11-19T00:57:39;15.1;80.6
78793;SHT31;68134;51.984;5.652;2023-11-19T01:00:09;15.1;80.6
78793;SHT31;68134;51.984;5.652;2023-11-19T01:02:42;15.1;80.7
78793;SHT31;68134;51.984;5.652;2023-11-19T01:05:11;15.1;80.6
78793;SHT31;68134;51.984;5.652;2023-11-19T01:07:42;15.1;80.6
78793;SHT31;68134;51.984;5.652;2023-11-19T01:10:11;15.1;80.6
78793;SHT31;68134;51.984;5.652;2023-11-19T01:12:41;15.1;80.4
78793;SHT31;68134;51.984;5.652;2023-11-19T01:15:10;15.1;80.2
78793;SHT31;68134;51.984;5.652;2023-11-19T01:17:39;15.0;80.3
78793;SHT31;68134;51.984;5.652;2023-11-19T01:20:09;15.0;80.3
78793;SHT31;68134;51.984;5.652;2023-11-19T01:22:40;15.0;80.3
78793;SHT31;68134;51.984;5.652;2023-11-19T01:25:10;15.0;80.3
78793;SHT31;68134;51.984;5.652;2023-11-19T01:27:38;15.0;80.3
78793;SHT31;68134;51.984;5.652;2023-11-19T01:30:08;15.0;80.1
78793;SHT31;68134;51.984;5.652;2023-11-19T01:32:39;15.0;79.9
78793;SHT31;68134;51.984;5.652;2023-11-19T01:35:08;15.0;79.8
78793;SHT31;68134;51.984;5.652;2023-11-19T01:37:37;15.0;79.8
78793;SHT31;68134;51.984;5.652;2023-11-19T01:40:06;15.0;79.7
78793;SHT31;68134;51.984;5.652;2023-11-19T01:42:38;15.0;79.7
78793;SHT31;68134;51.984;5.652;2023-11-19T01:45:08;15.0;79.4
78793;SHT31;68134;51.984;5.652;2023-11-19T01:47:37;15.0;79.6
78793;SHT31;68134;51.984;5.652;2023-11-19T01:50:08;15.0;79.8
78793;SHT31;68134;51.984;5.652;2023-11-19T01:52:39;15.0;79.7
78793;SHT31;68134;51.984;5.652;2023-11-19T01:55:09;15.0;79.5
78793;SHT31;68134;51.984;5.652;2023-11-19T01:57:39;15.0;79.6
78793;SHT31;68134;51.984;5.652;2023-11-19T02:00:09;15.0;79.5
78793;SHT31;68134;51.984;5.652;2023-11-19T02:02:40;15.0;79.2
78793;SHT31;68134;51.984;5.652;2023-11-19T02:05:10;14.9;79.2
78793;SHT31;68134;51.984;5.652;2023-11-19T02:07:40;14.9;78.8
78793;SHT31;68134;51.984;5.652;2023-11-19T02:10:09;14.9;78.7
78793;SHT31;68134;51.984;5.652;2023-11-19T02:12:42;14.9;78.6
78793;SHT31;68134;51.984;5.652;2023-11-19T02:15:11;14.9;78.6
78793;SHT31;68134;51.984;5.652;2023-11-19T02:17:40;14.9;78.6
78793;SHT31;68134;51.984;5.652;2023-11-19T02:20:10;14.9;78.4
78793;SHT31;68134;51.984;5.652;2023-11-19T02:22:41;14.8;78.5
78793;SHT31;68134;51.984;5.652;2023-11-19T02:25:17;14.8;78.5
78793;SHT31;68134;51.984;5.652;2023-11-19T02:27:58;14.8;78.4
78793;SHT31;68134;51.984;5.652;2023-11-19T02:30:29;14.8;78.3
78793;SHT31;68134;51.984;5.652;2023-11-19T02:32:59;14.8;78.3
78793;SHT31;68134;51.984;5.652;2023-11-19T02:35:32;14.7;78.0
78793;SHT31;68134;51.984;5.652;2023-11-19T02:38:01;14.7;77.8
78793;SHT31;68134;51.984;5.652;2023-11-19T02:40:30;14.7;77.8
78793;SHT31;68134;51.984;5.652;2023-11-19T02:42:58;14.7;77.9
78793;SHT31;68134;51.984;5.652;2023-11-19T02:45:31;14.6;77.7
78793;SHT31;68134;51.984;5.652;2023-11-19T02:48:00;14.6;77.7
78793;SHT31;68134;51.984;5.652;2023-11-19T02:50:32;14.6;77.3
78793;SHT31;68134;51.984;5.652;2023-11-19T02:53:01;14.6;77.3
78793;SHT31;68134;51.984;5.652;2023-11-19T02:55:32;14.5;77.2
78793;SHT31;68134;51.984;5.652;2023-11-19T02:58:04;14.5;77.0
78793;SHT31;68134;51.984;5.652;2023-11-19T03:00:40;14.5;77.1
78793;SHT31;68134;51.984;5.652;2023-11-19T03:03:13;14.4;77.0
78793;SHT31;68134;51.984;5.652;2023-11-19T03:05:47;14.4;77.0
78793;SHT31;68134;51.984;5.652;2023-11-19T03:08:16;14.4;77.1
78793;SHT31;68134;51.984;5.652;2023-11-19T03:10:44;14.3;77.3
78793;SHT31;68134;51.984;5.652;2023-11-19T03:13:15;14.3;77.4
78793;SHT31;68134;51.984;5.652;2023-11-19T03:15:46;14.3;77.3
78793;SHT31;68134;51.984;5.652;2023-11-19T03:18:14;14.2;77.2
78793;SHT31;68134;51.984;5.652;2023-11-19T03:20:43;14.2;77.1
78793;SHT31;68134;51.984;5.652;2023-11-19T03:23:12;14.2;77.2
78793;SHT31;68134;51.984;5.652;2023-11-19T03:25:40;14.1;77.3
78793;SHT31;68134;51.984;5.652;2023-11-19T03:28:10;14.1;77.2
78793;SHT31;68134;51.984;5.652;2023-11-19T03:30:39;14.1;77.3
78793;SHT31;68134;51.984;5.652;2023-11-19T03:33:10;14.0;77.2
78793;SHT31;68134;51.984;5.652;2023-11-19T03:35:38;14.0;77.2
78793;SHT31;68134;51.984;5.652;2023-11-19T03:38:07;14.0;77.3
78793;SHT31;68134;51.984;5.652;2023-11-19T03:40:36;13.9;77.4
78793;SHT31;68134;51.984;5.652;2023-11-19T03:43:05;13.9;77.5
78793;SHT31;68134;51.984;5.652;2023-11-19T03:45:35;13.8;77.5
78793;SHT31;68134;51.984;5.652;2023-11-19T03:48:05;13.8;77.5
78793;SHT31;68134;51.984;5.652;2023-11-19T03:50:33;13.8;77.6
78793;SHT31;68134;51.984;5.652;2023-11-19T03:53:04;13.7;77.8
78793;SHT31;68134;51.984;5.652;2023-11-19T03:55:33;13.7;77.9
78793;SHT31;68134;51.984;5.652;2023-11-19T03:58:01;13.6;77.8
78793;SHT31;68134;51.984;5.652;2023-11-19T04:00:30;13.6;77.8
78793;SHT31;68134;51.984;5.652;2023-11-19T04:02:58;13.6;77.9
78793;SHT31;68134;51.984;5.652;2023-11-19T04:05:27;13.5;77.8
78793;SHT31;68134;51.984;5.652;2023-11-19T04:07:55;13.5;77.9
78793;SHT31;68134;51.984;5.652;2023-11-19T04:10:24;13.5;77.7
78793;SHT31;68134;51.984;5.652;2023-11-19T04:12:53;13.4;77.6
78793;SHT31;68134;51.984;5.652;2023-11-19T04:15:24;13.4;77.7
78793;SHT31;68134;51.984;5.652;2023-11-19T04:17:53;13.4;78.0
78793;SHT31;68134;51.984;5.652;2023-11-19T04:20:21;13.4;77.7
78793;SHT31;68134;51.984;5.652;2023-11-19T04:22:50;13.3;77.7
78793;SHT31;68134;51.984;5.652;2023-11-19T04:25:20;13.3;77.8
78793;SHT31;68134;51.984;5.652;2023-11-19T04:27:49;13.3;77.7
78793;SHT31;68134;51.984;5.652;2023-11-19T04:30:18;13.2;77.4
78793;SHT31;68134;51.984;5.652;2023-11-19T04:32:47;13.2;77.6
78793;SHT31;68134;51.984;5.652;2023-11-19T04:35:15;13.2;77.4
78793;SHT31;68134;51.984;5.652;2023-11-19T04:37:45;13.2;77.6
78793;SHT31;68134;51.984;5.652;2023-11-19T04:40:14;13.1;77.7
78793;SHT31;68134;51.984;5.652;2023-11-19T04:42:44;13.1;77.9
78793;SHT31;68134;51.984;5.652;2023-11-19T04:45:13;13.1;77.8
78793;SHT31;68134;51.984;5.652;2023-11-19T04:47:42;13.1;77.8
78793;SHT31;68134;51.984;5.652;2023-11-19T04:50:11;13.1;77.8
78793;SHT31;68134;51.984;5.652;2023-11-19T04:52:41;13.0;77.8
78793;SHT31;68134;51.984;5.652;2023-11-19T04:55:12;13.0;77.7
78793;SHT31;68134;51.984;5.652;2023-11-19T04:57:41;13.0;77.6
78793;SHT31;68134;51.984;5.652;2023-11-19T05:00:10;13.0;77.5
78793;SHT31;68134;51.984;5.652;2023-11-19T05:02:40;13.0;77.6
78793;SHT31;68134;51.984;5.652;2023-11-19T05:05:08;13.0;77.5
78793;SHT31;68134;51.984;5.652;2023-11-19T05:07:38;13.0;77.4
78793;SHT31;68134;51.984;5.652;2023-11-19T05:10:07;13.0;77.5
78793;SHT31;68134;51.984;5.652;2023-11-19T05:12:36;13.0;77.4
78793;SHT31;68134;51.984;5.652;2023-11-19T05:15:06;12.9;77.5
78793;SHT31;68134;51.984;5.652;2023-11-19T05:17:35;12.9;77.7
78793;SHT31;68134;51.984;5.652;2023-11-19T05:20:04;12.9;77.9
78793;SHT31;68134;51.984;5.652;2023-11-19T05:22:38;12.9;77.5
78793;SHT31;68134;51.984;5.652;2023-11-19T05:25:07;12.9;77.5
78793;SHT31;68134;51.984;5.652;2023-11-19T05:27:36;12.9;77.6
78793;SHT31;68134;51.984;5.652;2023-11-19T05:30:06;13.0;77.4
78793;SHT31;68134;51.984;5.652;2023-11-19T05:32:36;13.0;77.4
78793;SHT31;68134;51.984;5.652;2023-11-19T05:35:07;13.0;77.3
78793;SHT31;68134;51.984;5.652;2023-11-19T05:37:35;13.0;77.2
78793;SHT31;68134;51.984;5.652;2023-11-19T05:40:05;13.0;77.1
78793;SHT31;68134;51.984;5.652;2023-11-19T05:42:40;13.0;77.2
78793;SHT31;68134;51.984;5.652;2023-11-19T05:45:10;13.0;77.4
78793;SHT31;68134;51.984;5.652;2023-11-19T05:47:41;13.0;77.2
78793;SHT31;68134;51.984;5.652;2023-11-19T05:50:11;13.0;76.9
78793;SHT31;68134;51.984;5.652;2023-11-19T05:52:40;13.0;76.8
78793;SHT31;68134;51.984;5.652;2023-11-19T05:55:09;13.0;76.7
78793;SHT31;68134;51.984;5.652;2023-11-19T05:57:39;13.0;76.6
78793;SHT31;68134;51.984;5.652;2023-11-19T06:00:11;13.0;76.6
78793;SHT31;68134;51.984;5.652;2023-11-19T06:02:41;13.0;76.7
78793;SHT31;68134;51.984;5.652;2023-11-19T06:05:10;13.0;76.7
78793;SHT31;68134;51.984;5.652;2023-11-19T06:07:39;13.0;76.7
78793;SHT31;68134;51.984;5.652;2023-11-19T06:10:08;13.0;76.8
78793;SHT31;68134;51.984;5.652;2023-11-19T06:12:37;13.0;76.9
78793;SHT31;68134;51.984;5.652;2023-11-19T06:15:08;12.9;76.9
78793;SHT31;68134;51.984;5.652;2023-11-19T06:17:37;12.9;77.0
78793;SHT31;68134;51.984;5.652;2023-11-19T06:20:07;12.9;77.1
78793;SHT31;68134;51.984;5.652;2023-11-19T06:22:36;12.9;77.0
78793;SHT31;68134;51.984;5.652;2023-11-19T06:25:04;12.9;77.0
78793;SHT31;68134;51.984;5.652;2023-11-19T06:27:34;12.9;77.2
78793;SHT31;68134;51.984;5.652;2023-11-19T06:30:03;12.9;77.1
78793;SHT31;68134;51.984;5.652;2023-11-19T06:32:32;12.8;77.1
78793;SHT31;68134;51.984;5.652;2023-11-19T06:35:01;12.8;77.3
78793;SHT31;68134;51.984;5.652;2023-11-19T06:37:31;12.8;77.2
78793;SHT31;68134;51.984;5.652;2023-11-19T06:39:59;12.8;77.2
78793;SHT31;68134;51.984;5.652;2023-11-19T06:42:28;12.8;77.4
78793;SHT31;68134;51.984;5.652;2023-11-19T06:44:57;12.8;77.4
78793;SHT31;68134;51.984;5.652;2023-11-19T06:47:27;12.8;77.3
78793;SHT31;68134;51.984;5.652;2023-11-19T06:49:56;12.8;77.5
78793;SHT31;68134;51.984;5.652;2023-11-19T06:52:24;12.8;77.7
78793;SHT31;68134;51.984;5.652;2023-11-19T06:54:53;12.8;77.3
78793;SHT31;68134;51.984;5.652;2023-11-19T06:57:25;12.8;77.3
78793;SHT31;68134;51.984;5.652;2023-11-19T06:59:54;12.8;77.1
78793;SHT31;68134;51.984;5.652;2023-11-19T07:02:23;12.8;77.1
78793;SHT31;68134;51.984;5.652;2023-11-19T07:04:51;12.8;77.0
78793;SHT31;68134;51.984;5.652;2023-11-19T07:07:21;12.8;77.1
78793;SHT31;68134;51.984;5.652;2023-11-19T07:09:49;12.8;77.2
78793;SHT31;68134;51.984;5.652;2023-11-19T07:12:20;12.8;77.3
78793;SHT31;68134;51.984;5.652;2023-11-19T07:14:48;12.8;77.3
78793;SHT31;68134;51.984;5.652;2023-11-19T07:17:17;12.8;77.2
78793;SHT31;68134;51.984;5.652;2023-11-19T07:19:46;12.8;77.1
78793;SHT31;68134;51.984;5.652;2023-11-19T07:22:15;12.8;77.0
78793;SHT31;68134;51.984;5.652;2023-11-19T07:24:46;12.8;76.9
78793;SHT31;68134;51.984;5.652;2023-11-19T07:27:15;12.8;77.0
78793;SHT31;68134;51.984;5.652;2023-11-19T07:29:45;12.8;77.2
78793;SHT31;68134;51.984;5.652;2023-11-19T07:32:16;12.8;77.2
78793;SHT31;68134;51.984;5.652;2023-11-19T07:34:44;12.8;77.2
78793;SHT31;68134;51.984;5.652;2023-11-19T07:37:13;12.8;76.9
78793;SHT31;68134;51.984;5.652;2023-11-19T07:39:43;12.8;77.3
78793;SHT31;68134;51.984;5.652;2023-11-19T07:42:12;12.8;77.3
78793;SHT31;68134;51.984;5.652;2023-11-19T07:44:40;12.8;77.2
78793;SHT31;68134;51.984;5.652;2023-11-19T07:47:09;12.9;77.1
78793;SHT31;68134;51.984;5.652;2023-11-19T07:49:39;12.9;76.9
78793;SHT31;68134;51.984;5.652;2023-11-19T07:52:10;12.9;77.3
78793;SHT31;68134;51.984;5.652;2023-11-19T07:54:38;12.9;77.2
78793;SHT31;68134;51.984;5.652;2023-11-19T07:57:07;12.9;77.0
78793;SHT31;68134;51.984;5.652;2023-11-19T07:59:35;13.0;77.2
78793;SHT31;68134;51.984;5.652;2023-11-19T08:02:04;13.0;77.3
78793;SHT31;68134;51.984;5.652;2023-11-19T08:04:33;13.1;76.8
78793;SHT31;68134;51.984;5.652;2023-11-19T08:07:02;13.2;76.4
78793;SHT31;68134;51.984;5.652;2023-11-19T08:09:31;13.2;76.3
78793;SHT31;68134;51.984;5.652;2023-11-19T08:11:59;13.3;76.3
78793;SHT31;68134;51.984;5.652;2023-11-19T08:14:28;13.4;76.1
78793;SHT31;68134;51.984;5.652;2023-11-19T08:16:56;13.4;75.7
78793;SHT31;68134;51.984;5.652;2023-11-19T08:19:25;13.5;75.4
78793;SHT31;68134;51.984;5.652;2023-11-19T08:21:53;13.5;74.9
78793;SHT31;68134;51.984;5.652;2023-11-19T08:24:22;13.6;74.8
78793;SHT31;68134;51.984;5.652;2023-11-19T08:26:51;13.6;74.8
78793;SHT31;68134;51.984;5.652;2023-11-19T08:29:19;13.7;74.4
78793;SHT31;68134;51.984;5.652;2023-11-19T08:31:48;13.7;74.0
78793;SHT31;68134;51.984;5.652;2023-11-19T08:34:16;13.7;73.8
78793;SHT31;68134;51.984;5.652;2023-11-19T08:36:45;13.8;73.5
78793;SHT31;68134;51.984;5.652;2023-11-19T08:39:13;13.8;73.6
78793;SHT31;68134;51.984;5.652;2023-11-19T08:41:43;13.8;73.5
78793;SHT31;68134;51.984;5.652;2023-11-19T08:44:12;13.9;73.5
78793;SHT31;68134;51.984;5.652;2023-11-19T08:46:49;13.9;73.3
78793;SHT31;68134;51.984;5.652;2023-11-19T08:49:18;14.0;73.0
78793;SHT31;68134;51.984;5.652;2023-11-19T08:51:46;14.1;72.2
78793;SHT31;68134;51.984;5.652;2023-11-19T08:54:15;14.1;72.7
78793;SHT31;68134;51.984;5.652;2023-11-19T08:56:43;14.2;72.7
78793;SHT31;68134;51.984;5.652;2023-11-19T08:59:12;14.2;71.6
78793;SHT31;68134;51.984;5.652;2023-11-19T09:01:41;14.3;71.6
78793;SHT31;68134;51.984;5.652;2023-11-19T09:04:10;14.3;71.1
78793;SHT31;68134;51.984;5.652;2023-11-19T09:06:41;14.3;71.0
78793;SHT31;68134;51.984;5.652;2023-11-19T09:09:10;14.3;71.3
78793;SHT31;68134;51.984;5.652;2023-11-19T09:11:39;14.4;71.1
78793;SHT31;68134;51.984;5.652;2023-11-19T09:14:09;14.4;70.5
78793;SHT31;68134;51.984;5.652;2023-11-19T09:16:37;14.4;70.8
78793;SHT31;68134;51.984;5.652;2023-11-19T09:19:06;14.5;70.2
78793;SHT31;68134;51.984;5.652;2023-11-19T09:21:34;14.5;69.9
78793;SHT31;68134;51.984;5.652;2023-11-19T09:24:05;14.5;70.6
78793;SHT31;68134;51.984;5.652;2023-11-19T09:26:34;14.5;70.3
78793;SHT31;68134;51.984;5.652;2023-11-19T09:29:06;14.5;70.4
78793;SHT31;68134;51.984;5.652;2023-11-19T09:31:38;14.5;70.7
78793;SHT31;68134;51.984;5.652;2023-11-19T09:34:06;14.6;70.3
78793;SHT31;68134;51.984;5.652;2023-11-19T09:36:36;14.7;69.6
78793;SHT31;68134;51.984;5.652;2023-11-19T09:39:05;14.7;69.4
78793;SHT31;68134;51.984;5.652;2023-11-19T09:41:35;14.7;68.7
78793;SHT31;68134;51.984;5.652;2023-11-19T09:44:03;14.7;69.7
78793;SHT31;68134;51.984;5.652;2023-11-19T09:46:35;14.7;69.7
78793;SHT31;68134;51.984;5.652;2023-11-19T09:49:04;14.8;69.2
78793;SHT31;68134;51.984;5.652;2023-11-19T09:51:35;14.8;69.9
78793;SHT31;68134;51.984;5.652;2023-11-19T09:54:04;14.8;69.2
78793;SHT31;68134;51.984;5.652;2023-11-19T09:56:36;14.9;69.4
78793;SHT31;68134;51.984;5.652;2023-11-19T09:59:06;14.9;69.2
78793;SHT31;68134;51.984;5.652;2023-11-19T10:01:40;15.0;68.7
78793;SHT31;68134;51.984;5.652;2023-11-19T10:04:11;15.0;68.7
78793;SHT31;68134;51.984;5.652;2023-11-19T10:06:43;15.1;67.9
78793;SHT31;68134;51.984;5.652;2023-11-19T10:09:11;15.1;68.0
78793;SHT31;68134;51.984;5.652;2023-11-19T10:11:41;15.1;67.7
78793;SHT31;68134;51.984;5.652;2023-11-19T10:14:10;15.1;67.8
78793;SHT31;68134;51.984;5.652;2023-11-19T10:16:38;15.1;67.6
78793;SHT31;68134;51.984;5.652;2023-11-19T10:19:07;15.1;67.8
78793;SHT31;68134;51.984;5.652;2023-11-19T10:21:36;15.0;67.7
78793;SHT31;68134;51.984;5.652;2023-11-19T10:24:05;15.0;67.9
78793;SHT31;68134;51.984;5.652;2023-11-19T10:26:36;15.0;67.7
78793;SHT31;68134;51.984;5.652;2023-11-19T10:29:04;15.0;67.6
78793;SHT31;68134;51.984;5.652;2023-11-19T10:31:33;15.0;67.2
78793;SHT31;68134;51.984;5.652;2023-11-19T10:34:02;15.0;68.4
78793;SHT31;68134;51.984;5.652;2023-11-19T10:36:39;15.1;68.7
78793;SHT31;68134;51.984;5.652;2023-11-19T10:39:12;15.2;67.1
78793;SHT31;68134;51.984;5.652;2023-11-19T10:41:40;15.3;66.7
78793;SHT31;68134;51.984;5.652;2023-11-19T10:44:09;15.4;66.0
78793;SHT31;68134;51.984;5.652;2023-11-19T10:46:42;15.5;66.3
78793;SHT31;68134;51.984;5.652;2023-11-19T10:49:10;15.6;65.8
78793;SHT31;68134;51.984;5.652;2023-11-19T10:51:46;15.7;64.6
78793;SHT31;68134;51.984;5.652;2023-11-19T10:54:19;15.8;64.5
78793;SHT31;68134;51.984;5.652;2023-11-19T10:56:54;15.9;65.0
78793;SHT31;68134;51.984;5.652;2023-11-19T10:59:25;16.1;64.2
78793;SHT31;68134;51.984;5.652;2023-11-19T11:01:56;16.2;63.2
78793;SHT31;68134;51.984;5.652;2023-11-19T11:04:26;16.3;63.8
78793;SHT31;68134;51.984;5.652;2023-11-19T11:07:03;16.4;63.5
78793;SHT31;68134;51.984;5.652;2023-11-19T11:09:32;16.5;62.6
78793;SHT31;68134;51.984;5.652;2023-11-19T11:12:01;16.6;60.9
78793;SHT31;68134;51.984;5.652;2023-11-19T11:14:32;16.6;61.5
78793;SHT31;68134;51.984;5.652;2023-11-19T11:17:03;16.7;61.5
78793;SHT31;68134;51.984;5.652;2023-11-19T11:19:34;16.7;60.8
78793;SHT31;68134;51.984;5.652;2023-11-19T11:22:05;16.6;61.1
78793;SHT31;68134;51.984;5.652;2023-11-19T11:27:51;16.4;62.3
78793;SHT31;68134;51.984;5.652;2023-11-19T11:30:31;16.4;62.7
78793;SHT31;68134;51.984;5.652;2023-11-19T11:33:17;16.3;62.8
78793;SHT31;68134;51.984;5.652;2023-11-19T11:35:52;16.2;63.3
78793;SHT31;68134;51.984;5.652;2023-11-19T11:38:23;16.1;63.3
78793;SHT31;68134;51.984;5.652;2023-11-19T11:41:20;16.1;63.3
78793;SHT31;68134;51.984;5.652;2023-11-19T11:43:50;16.0;63.7
78793;SHT31;68134;51.984;5.652;2023-11-19T11:46:55;16.0;63.9
78793;SHT31;68134;51.984;5.652;2023-11-19T11:49:28;16.0;63.9
78793;SHT31;68134;51.984;5.652;2023-11-19T11:52:02;16.1;63.9
78793;SHT31;68134;51.984;5.652;2023-11-19T11:54:35;16.2;64.0
78793;SHT31;68134;51.984;5.652;2023-11-19T11:57:13;16.5;62.1
78793;SHT31;68134;51.984;5.652;2023-11-19T11:59:45;16.6;61.0
78793;SHT31;68134;51.984;5.652;2023-11-19T12:02:15;16.7;60.5
78793;SHT31;68134;51.984;5.652;2023-11-19T12:04:49;16.7;60.0
78793;SHT31;68134;51.984;5.652;2023-11-19T12:07:20;16.6;59.7
78793;SHT31;68134;51.984;5.652;2023-11-19T12:09:52;16.5;59.8
78793;SHT31;68134;51.984;5.652;2023-11-19T12:12:27;16.4;61.1
78793;SHT31;68134;51.984;5.652;2023-11-19T12:15:07;16.4;62.0
78793;SHT31;68134;51.984;5.652;2023-11-19T12:17:41;16.4;63.0
78793;SHT31;68134;51.984;5.652;2023-11-19T12:20:12;16.5;61.2
78793;SHT31;68134;51.984;5.652;2023-11-19T12:22:42;16.6;61.4
78793;SHT31;68134;51.984;5.652;2023-11-19T12:25:12;16.6;61.4
78793;SHT31;68134;51.984;5.652;2023-11-19T12:27:44;16.6;61.3
78793;SHT31;68134;51.984;5.652;2023-11-19T12:30:16;16.6;60.4
78793;SHT31;68134;51.984;5.652;2023-11-19T12:32:46;16.6;61.2
78793;SHT31;68134;51.984;5.652;2023-11-19T12:35:15;16.7;61.1
78793;SHT31;68134;51.984;5.652;2023-11-19T12:37:45;16.7;60.8
78793;SHT31;68134;51.984;5.652;2023-11-19T12:40:16;16.7;60.4
78793;SHT31;68134;51.984;5.652;2023-11-19T12:42:45;16.6;59.9
78793;SHT31;68134;51.984;5.652;2023-11-19T12:45:15;16.6;60.2
78793;SHT31;68134;51.984;5.652;2023-11-19T12:47:46;16.5;60.1
78793;SHT31;68134;51.984;5.652;2023-11-19T12:50:17;16.5;60.6
78793;SHT31;68134;51.984;5.652;2023-11-19T12:52:56;16.5;60.3
78793;SHT31;68134;51.984;5.652;2023-11-19T12:55:29;16.5;61.1
78793;SHT31;68134;51.984;5.652;2023-11-19T12:57:59;16.5;60.6
78793;SHT31;68134;51.984;5.652;2023-11-19T13:00:27;16.5;61.3
78793;SHT31;68134;51.984;5.652;2023-11-19T13:02:57;16.6;60.8
78793;SHT31;68134;51.984;5.652;2023-11-19T13:05:30;16.6;60.3
78793;SHT31;68134;51.984;5.652;2023-11-19T13:08:00;16.6;60.8
78793;SHT31;68134;51.984;5.652;2023-11-19T13:10:30;16.5;61.3
78793;SHT31;68134;51.984;5.652;2023-11-19T13:13:02;16.5;61.9
78793;SHT31;68134;51.984;5.652;2023-11-19T13:15:32;16.4;61.5
78793;SHT31;68134;51.984;5.652;2023-11-19T13:18:02;16.3;61.5
78793;SHT31;68134;51.984;5.652;2023-11-19T13:20:31;16.3;62.2
78793;SHT31;68134;51.984;5.652;2023-11-19T13:23:03;16.2;62.4
78793;SHT31;68134;51.984;5.652;2023-11-19T13:25:33;16.1;62.8
78793;SHT31;68134;51.984;5.652;2023-11-19T13:28:02;16.1;62.8
78793;SHT31;68134;51.984;5.652;2023-11-19T13:30:32;16.0;63.4
78793;SHT31;68134;51.984;5.652;2023-11-19T13:33:00;16.0;63.3
78793;SHT31;68134;51.984;5.652;2023-11-19T13:35:29;15.9;63.1
78793;SHT31;68134;51.984;5.652;2023-11-19T13:37:58;15.9;64.2
78793;SHT31;68134;51.984;5.652;2023-11-19T13:40:28;15.9;64.3
78793;SHT31;68134;51.984;5.652;2023-11-19T13:42:56;15.9;64.1
78793;SHT31;68134;51.984;5.652;2023-11-19T13:45:25;15.9;64.1
78793;SHT31;68134;51.984;5.652;2023-11-19T13:47:54;15.9;64.1
78793;SHT31;68134;51.984;5.652;2023-11-19T13:50:22;15.8;65.1
78793;SHT31;68134;51.984;5.652;2023-11-19T13:52:51;15.8;65.7
78793;SHT31;68134;51.984;5.652;2023-11-19T13:55:20;15.8;65.3
78793;SHT31;68134;51.984;5.652;2023-11-19T13:57:48;15.8;65.8
78793;SHT31;68134;51.984;5.652;2023-11-19T14:00:18;15.8;65.8
78793;SHT31;68134;51.984;5.652;2023-11-19T14:02:49;15.8;66.5
78793;SHT31;68134;51.984;5.652;2023-11-19T14:05:18;15.8;66.5
78793;SHT31;68134;51.984;5.652;2023-11-19T14:07:47;15.8;66.2
78793;SHT31;68134;51.984;5.652;2023-11-19T14:10:16;15.8;66.7
78793;SHT31;68134;51.984;5.652;2023-11-19T14:12:47;15.9;66.0
78793;SHT31;68134;51.984;5.652;2023-11-19T14:15:16;16.0;65.2
78793;SHT31;68134;51.984;5.652;2023-11-19T14:17:46;16.1;65.4
78793;SHT31;68134;51.984;5.652;2023-11-19T14:20:14;16.1;64.3
78793;SHT31;68134;51.984;5.652;2023-11-19T14:22:45;16.1;63.8
78793;SHT31;68134;51.984;5.652;2023-11-19T14:25:15;16.0;63.9
78793;SHT31;68134;51.984;5.652;2023-11-19T14:27:46;16.0;63.4
78793;SHT31;68134;51.984;5.652;2023-11-19T14:30:15;15.9;64.1
78793;SHT31;68134;51.984;5.652;2023-11-19T14:32:44;15.7;65.1
78793;SHT31;68134;51.984;5.652;2023-11-19T14:35:15;15.6;64.5
78793;SHT31;68134;51.984;5.652;2023-11-19T14:37:43;15.6;64.7
78793;SHT31;68134;51.984;5.652;2023-11-19T14:40:12;15.4;64.8
78793;SHT31;68134;51.984;5.652;2023-11-19T14:42:43;15.4;65.5
78793;SHT31;68134;51.984;5.652;2023-11-19T14:45:11;15.3;65.4
78793;SHT31;68134;51.984;5.652;2023-11-19T14:47:40;15.2;66.0
78793;SHT31;68134;51.984;5.652;2023-11-19T14:50:09;15.1;66.1
78793;SHT31;68134;51.984;5.652;2023-11-19T14:52:37;15.1;66.8
78793;SHT31;68134;51.984;5.652;2023-11-19T14:55:07;15.0;66.7
78793;SHT31;68134;51.984;5.652;2023-11-19T14:57:37;15.0;67.2
78793;SHT31;68134;51.984;5.652;2023-11-19T15:00:08;15.0;67.0
78793;SHT31;68134;51.984;5.652;2023-11-19T15:02:39;14.9;67.1
78793;SHT31;68134;51.984;5.652;2023-11-19T15:05:09;14.9;67.2
78793;SHT31;68134;51.984;5.652;2023-11-19T15:07:38;14.8;67.4
78793;SHT31;68134;51.984;5.652;2023-11-19T15:10:10;14.8;67.7
78793;SHT31;68134;51.984;5.652;2023-11-19T15:12:39;14.7;67.9
78793;SHT31;68134;51.984;5.652;2023-11-19T15:15:09;14.7;68.2
78793;SHT31;68134;51.984;5.652;2023-11-19T15:17:40;14.7;68.1
78793;SHT31;68134;51.984;5.652;2023-11-19T15:20:09;14.7;68.1
78793;SHT31;68134;51.984;5.652;2023-11-19T15:22:40;14.7;68.5
78793;SHT31;68134;51.984;5.652;2023-11-19T15:25:09;14.7;68.4
78793;SHT31;68134;51.984;5.652;2023-11-19T15:27:38;14.7;68.2
78793;SHT31;68134;51.984;5.652;2023-11-19T15:30:08;14.7;68.5
78793;SHT31;68134;51.984;5.652;2023-11-19T15:32:37;14.7;68.4
78793;SHT31;68134;51.984;5.652;2023-11-19T15:35:06;14.7;69.0
78793;SHT31;68134;51.984;5.652;2023-11-19T15:37:36;14.7;68.6
78793;SHT31;68134;51.984;5.652;2023-11-19T15:40:07;14.7;68.7
78793;SHT31;68134;51.984;5.652;2023-11-19T15:42:35;14.7;68.7
78793;SHT31;68134;51.984;5.652;2023-11-19T15:45:05;14.6;68.3
78793;SHT31;68134;51.984;5.652;2023-11-19T15:47:33;14.6;68.9
78793;SHT31;68134;51.984;5.652;2023-11-19T15:50:03;14.6;68.8
78793;SHT31;68134;51.984;5.652;2023-11-19T15:52:32;14.6;68.8
78793;SHT31;68134;51.984;5.652;2023-11-19T15:55:01;14.6;69.1
78793;SHT31;68134;51.984;5.652;2023-11-19T15:57:29;14.6;69.7
78793;SHT31;68134;51.984;5.652;2023-11-19T15:59:58;14.5;69.7
78793;SHT31;68134;51.984;5.652;2023-11-19T16:02:27;14.5;69.7
78793;SHT31;68134;51.984;5.652;2023-11-19T16:04:55;14.5;70.0
78793;SHT31;68134;51.984;5.652;2023-11-19T16:07:24;14.5;70.3
78793;SHT31;68134;51.984;5.652;2023-11-19T16:09:53;14.5;70.3
78793;SHT31;68134;51.984;5.652;2023-11-19T16:12:22;14.4;70.5
78793;SHT31;68134;51.984;5.652;2023-11-19T16:14:51;14.4;70.2
78793;SHT31;68134;51.984;5.652;2023-11-19T16:17:19;14.4;69.9
78793;SHT31;68134;51.984;5.652;2023-11-19T16:19:50;14.4;69.8
78793;SHT31;68134;51.984;5.652;2023-11-19T16:22:18;14.4;69.8